Capitol Logistics 7552

Operating for MZN



PAFA
Fairbanks International Airport
Fairbanks, Alaska
KPDX
Portland International Airport
Portland, Oregon

Activity Log

Date Flight Route Aircraft Duration
No Flights Yet

Route Details

Aircraft Information
Primary: Boeing 737-800BCF
Backup: Boeing 757-200SF
Route Data
Distance: 1424nm
Duration: 2h 54m
Recm'd Route: RDFLG3 RDFLG J515 ORT J502 AYZOL Q902 IGSOM 5917N/13629W SSR J502 YZT J523 TOU BUWZO KRATR2
Origin Wx: PAFA 180253Z 00000KT 10SM CLR 11/M04 A3043 RMK AO2 SLP313 T01111039 56021
Dest. Wx: KPDX 180253Z 32004KT 10SM CLR 24/02 A3009 RMK AO2 SLP188 T02390017 55005
Notes: